TimeCDT,TemperatureF,Dew PointF,Humidity,Sea Level PressureIn,VisibilityMPH,Wind Direction,Wind SpeedMPH,Gust SpeedMPH,PrecipitationIn,Events,Conditions,WindDirDegrees,DateUTC
12:53 AM,48.0,33.1,56,30.14,10.0,SSE,9.2,-,N/A,,Clear,150,2013-09-29 05:53:00
1:53 AM,46.9,34.0,61,30.14,10.0,SSE,8.1,-,N/A,,Clear,160,2013-09-29 06:53:00
2:53 AM,45.0,34.0,65,30.13,10.0,SSE,4.6,-,N/A,,Clear,160,2013-09-29 07:53:00
3:53 AM,43.0,34.0,71,30.11,10.0,South,9.2,-,N/A,,Clear,190,2013-09-29 08:53:00
4:53 AM,41.0,34.0,76,30.10,10.0,SSW,8.1,-,N/A,,Clear,200,2013-09-29 09:53:00
5:53 AM,41.0,33.1,73,30.10,10.0,SSW,3.5,-,N/A,,Clear,200,2013-09-29 10:53:00
6:53 AM,36.0,30.9,82,30.11,10.0,SSW,8.1,-,N/A,,Clear,210,2013-09-29 11:53:00
7:53 AM,37.0,32.0,82,30.12,10.0,SW,5.8,-,N/A,,Clear,230,2013-09-29 12:53:00
8:53 AM,48.0,36.0,63,30.10,10.0,SSW,6.9,-,N/A,,Clear,200,2013-09-29 13:53:00
9:53 AM,57.0,37.0,47,30.09,10.0,SSW,12.7,-,N/A,,Clear,210,2013-09-29 14:53:00
10:53 AM,64.0,37.0,37,30.06,10.0,SSW,16.1,20.7,N/A,,Clear,200,2013-09-29 15:53:00
11:53 AM,69.1,37.0,31,30.03,10.0,SSW,13.8,21.9,N/A,,Clear,200,2013-09-29 16:53:00
12:53 PM,73.0,35.1,25,29.99,10.0,SSW,19.6,24.2,N/A,,Clear,210,2013-09-29 17:53:00
1:53 PM,75.9,35.1,23,29.94,10.0,South,18.4,23.0,N/A,,Clear,190,2013-09-29 18:53:00
2:53 PM,80.1,34.0,19,29.89,10.0,SSW,13.8,24.2,N/A,,Clear,200,2013-09-29 19:53:00
3:53 PM,81.0,30.0,16,29.87,10.0,SSW,15.0,20.7,N/A,,Clear,210,2013-09-29 20:53:00
4:53 PM,82.0,28.9,14,29.84,10.0,SSW,15.0,-,N/A,,Clear,210,2013-09-29 21:53:00
5:53 PM,81.0,28.9,15,29.82,10.0,SSW,13.8,-,N/A,,Clear,200,2013-09-29 22:53:00
6:53 PM,78.1,26.1,15,29.84,10.0,SSW,10.4,-,N/A,,Clear,200,2013-09-29 23:53:00
7:53 PM,69.1,30.0,23,29.86,10.0,South,5.8,-,N/A,,Clear,180,2013-09-30 00:53:00
8:53 PM,63.0,32.0,31,29.85,10.0,SSE,5.8,-,N/A,,Clear,160,2013-09-30 01:53:00
9:53 PM,60.1,32.0,35,29.84,10.0,ENE,4.6,-,N/A,,Clear,70,2013-09-30 02:53:00
10:53 PM,57.9,34.0,41,29.83,10.0,ESE,6.9,-,N/A,,Clear,120,2013-09-30 03:53:00
11:53 PM,53.1,35.1,50,29.82,10.0,South,6.9,-,N/A,,Clear,170,2013-09-30 04:53:00